Decoded Metar for KLSF (FORT BENNING in GA, USA) (IATA:LSF) | Meteo·Mobile Aviation Weather
aviador You're here:

KLSF Decoded Metar

FORT BENNING in GA, USA
Report Time2018-11-19 08:41:00
UTC Time2018-11-19 08:56:04
Flight Rules lifr LIFR
WindCalm
Visibility1408 m
Phenomena:Mist
Clouds:N/A
CeilingNone
Temp04°C (ISA -11)
Dew Point04°C (100% RH)
AAT2.7°C
QNH1021 hPa
Density Alt-1,204 ft
Elevation233 ft
Report Wrong Elevation
Raw Report
KLSF 190841Z AUTO 00000KT 7/8SM R33/4000V6000FT BR CLR 04/04 A3015
RMK AO2 VIS 7/8V1 7/8 SLP215 $=

Extra information for KLSF:More info

Metar Taf Metar & Taf Last 4 Metars F.Rules Stats Wind Profile Meteogram Temp Stats Airport Information Weather charts Add Link Nearby VenuesMetar ALERT Operation Metar Decoded Social comments

AIRNAV info for KLSF